sensor_id;sensor_type;location;lat;lon;timestamp;P1;durP1;ratioP1;P2;durP2;ratioP2
50932;SDS011;36921;49.006;9.292;2024-01-30T00:00:16;20.58;;;9.52;;
50932;SDS011;36921;49.006;9.292;2024-01-30T00:02:42;22.52;;;9.20;;
50932;SDS011;36921;49.006;9.292;2024-01-30T00:05:08;17.02;;;8.63;;
50932;SDS011;36921;49.006;9.292;2024-01-30T00:07:33;23.45;;;8.85;;
50932;SDS011;36921;49.006;9.292;2024-01-30T00:09:59;16.52;;;8.45;;
50932;SDS011;36921;49.006;9.292;2024-01-30T00:12:25;22.00;;;9.70;;
50932;SDS011;36921;49.006;9.292;2024-01-30T00:14:51;19.60;;;8.52;;
50932;SDS011;36921;49.006;9.292;2024-01-30T00:17:16;18.80;;;8.55;;
50932;SDS011;36921;49.006;9.292;2024-01-30T00:19:42;22.50;;;9.05;;
50932;SDS011;36921;49.006;9.292;2024-01-30T00:22:07;18.65;;;8.85;;
50932;SDS011;36921;49.006;9.292;2024-01-30T00:24:33;17.67;;;8.07;;
50932;SDS011;36921;49.006;9.292;2024-01-30T00:26:58;16.95;;;8.02;;
50932;SDS011;36921;49.006;9.292;2024-01-30T00:29:23;13.98;;;7.63;;
50932;SDS011;36921;49.006;9.292;2024-01-30T00:31:50;19.65;;;8.00;;
50932;SDS011;36921;49.006;9.292;2024-01-30T00:34:16;18.30;;;8.10;;
50932;SDS011;36921;49.006;9.292;2024-01-30T00:36:41;19.10;;;8.13;;
50932;SDS011;36921;49.006;9.292;2024-01-30T00:39:06;17.58;;;7.55;;
50932;SDS011;36921;49.006;9.292;2024-01-30T00:41:34;14.18;;;7.60;;
50932;SDS011;36921;49.006;9.292;2024-01-30T00:43:59;16.55;;;7.93;;
50932;SDS011;36921;49.006;9.292;2024-01-30T00:46:25;15.57;;;7.68;;
50932;SDS011;36921;49.006;9.292;2024-01-30T00:48:50;17.65;;;8.15;;
50932;SDS011;36921;49.006;9.292;2024-01-30T00:51:16;19.63;;;8.25;;
50932;SDS011;36921;49.006;9.292;2024-01-30T00:53:41;16.45;;;7.85;;
50932;SDS011;36921;49.006;9.292;2024-01-30T00:56:09;16.55;;;8.40;;
50932;SDS011;36921;49.006;9.292;2024-01-30T00:58:34;18.90;;;8.00;;
50932;SDS011;36921;49.006;9.292;2024-01-30T01:03:51;16.60;;;8.35;;
50932;SDS011;36921;49.006;9.292;2024-01-30T01:06:16;13.55;;;7.53;;
50932;SDS011;36921;49.006;9.292;2024-01-30T01:08:42;15.80;;;7.68;;
50932;SDS011;36921;49.006;9.292;2024-01-30T01:11:07;13.63;;;7.28;;
50932;SDS011;36921;49.006;9.292;2024-01-30T01:13:32;16.65;;;8.15;;
50932;SDS011;36921;49.006;9.292;2024-01-30T01:15:58;15.13;;;7.90;;
50932;SDS011;36921;49.006;9.292;2024-01-30T01:18:23;22.60;;;9.20;;
50932;SDS011;36921;49.006;9.292;2024-01-30T01:20:49;22.20;;;8.63;;
50932;SDS011;36921;49.006;9.292;2024-01-30T01:23:14;19.45;;;9.82;;
50932;SDS011;36921;49.006;9.292;2024-01-30T01:25:40;25.08;;;9.52;;
50932;SDS011;36921;49.006;9.292;2024-01-30T01:28:05;20.70;;;9.75;;
50932;SDS011;36921;49.006;9.292;2024-01-30T01:30:30;18.92;;;9.75;;
50932;SDS011;36921;49.006;9.292;2024-01-30T01:32:56;25.13;;;9.05;;
50932;SDS011;36921;49.006;9.292;2024-01-30T01:35:25;22.27;;;9.60;;
50932;SDS011;36921;49.006;9.292;2024-01-30T01:37:51;19.42;;;8.52;;
50932;SDS011;36921;49.006;9.292;2024-01-30T01:40:20;11.93;;;6.90;;
50932;SDS011;36921;49.006;9.292;2024-01-30T01:42:47;17.15;;;9.38;;
50932;SDS011;36921;49.006;9.292;2024-01-30T01:45:14;16.50;;;8.55;;
50932;SDS011;36921;49.006;9.292;2024-01-30T01:47:40;16.67;;;8.98;;
50932;SDS011;36921;49.006;9.292;2024-01-30T01:50:06;22.08;;;9.20;;
50932;SDS011;36921;49.006;9.292;2024-01-30T01:52:32;19.70;;;10.00;;
50932;SDS011;36921;49.006;9.292;2024-01-30T01:54:57;19.08;;;8.32;;
50932;SDS011;36921;49.006;9.292;2024-01-30T01:57:23;20.77;;;10.10;;
50932;SDS011;36921;49.006;9.292;2024-01-30T01:59:48;22.08;;;9.68;;
50932;SDS011;36921;49.006;9.292;2024-01-30T02:02:14;19.42;;;9.77;;
50932;SDS011;36921;49.006;9.292;2024-01-30T02:04:42;15.50;;;7.40;;
50932;SDS011;36921;49.006;9.292;2024-01-30T02:07:08;17.73;;;8.63;;
50932;SDS011;36921;49.006;9.292;2024-01-30T02:09:33;17.50;;;8.98;;
50932;SDS011;36921;49.006;9.292;2024-01-30T02:11:58;17.75;;;9.25;;
50932;SDS011;36921;49.006;9.292;2024-01-30T02:14:23;19.75;;;9.02;;
50932;SDS011;36921;49.006;9.292;2024-01-30T02:16:49;16.08;;;8.35;;
50932;SDS011;36921;49.006;9.292;2024-01-30T02:19:14;17.42;;;8.00;;
50932;SDS011;36921;49.006;9.292;2024-01-30T02:21:39;15.27;;;7.20;;
50932;SDS011;36921;49.006;9.292;2024-01-30T02:24:05;15.25;;;7.93;;
50932;SDS011;36921;49.006;9.292;2024-01-30T02:26:30;13.68;;;8.07;;
50932;SDS011;36921;49.006;9.292;2024-01-30T02:28:56;18.13;;;7.93;;
50932;SDS011;36921;49.006;9.292;2024-01-30T02:31:21;15.65;;;7.35;;
50932;SDS011;36921;49.006;9.292;2024-01-30T02:33:46;16.45;;;8.38;;
50932;SDS011;36921;49.006;9.292;2024-01-30T02:36:11;18.52;;;8.80;;
50932;SDS011;36921;49.006;9.292;2024-01-30T02:38:37;17.85;;;8.73;;
50932;SDS011;36921;49.006;9.292;2024-01-30T02:41:02;15.98;;;8.40;;
50932;SDS011;36921;49.006;9.292;2024-01-30T02:43:27;18.33;;;8.82;;
50932;SDS011;36921;49.006;9.292;2024-01-30T02:45:52;18.85;;;8.02;;
50932;SDS011;36921;49.006;9.292;2024-01-30T02:48:18;18.38;;;8.27;;
50932;SDS011;36921;49.006;9.292;2024-01-30T02:50:43;15.65;;;7.32;;
50932;SDS011;36921;49.006;9.292;2024-01-30T02:53:08;15.63;;;8.25;;
50932;SDS011;36921;49.006;9.292;2024-01-30T02:55:34;21.13;;;7.97;;
50932;SDS011;36921;49.006;9.292;2024-01-30T02:57:59;15.00;;;7.68;;
50932;SDS011;36921;49.006;9.292;2024-01-30T03:00:24;14.20;;;6.85;;
50932;SDS011;36921;49.006;9.292;2024-01-30T03:02:49;13.27;;;7.85;;
50932;SDS011;36921;49.006;9.292;2024-01-30T03:05:15;16.95;;;7.57;;
50932;SDS011;36921;49.006;9.292;2024-01-30T03:07:40;15.57;;;7.97;;
50932;SDS011;36921;49.006;9.292;2024-01-30T03:10:05;16.13;;;7.35;;
50932;SDS011;36921;49.006;9.292;2024-01-30T03:12:31;18.48;;;8.18;;
50932;SDS011;36921;49.006;9.292;2024-01-30T03:14:57;17.73;;;7.35;;
50932;SDS011;36921;49.006;9.292;2024-01-30T03:17:22;17.35;;;8.18;;
50932;SDS011;36921;49.006;9.292;2024-01-30T03:19:49;18.65;;;8.82;;
50932;SDS011;36921;49.006;9.292;2024-01-30T03:22:14;19.42;;;9.10;;
50932;SDS011;36921;49.006;9.292;2024-01-30T03:24:39;18.17;;;8.23;;
50932;SDS011;36921;49.006;9.292;2024-01-30T03:27:05;18.30;;;8.65;;
50932;SDS011;36921;49.006;9.292;2024-01-30T03:29:30;21.70;;;8.07;;
50932;SDS011;36921;49.006;9.292;2024-01-30T03:31:55;16.45;;;7.55;;
50932;SDS011;36921;49.006;9.292;2024-01-30T03:34:20;16.27;;;7.97;;
50932;SDS011;36921;49.006;9.292;2024-01-30T03:36:46;18.23;;;8.18;;
50932;SDS011;36921;49.006;9.292;2024-01-30T03:39:12;13.32;;;7.35;;
50932;SDS011;36921;49.006;9.292;2024-01-30T03:41:37;14.10;;;7.20;;
50932;SDS011;36921;49.006;9.292;2024-01-30T03:44:03;13.70;;;6.57;;
50932;SDS011;36921;49.006;9.292;2024-01-30T03:46:28;14.55;;;7.05;;
50932;SDS011;36921;49.006;9.292;2024-01-30T03:48:53;13.15;;;6.75;;
50932;SDS011;36921;49.006;9.292;2024-01-30T03:51:19;10.10;;;6.03;;
50932;SDS011;36921;49.006;9.292;2024-01-30T03:53:44;14.95;;;6.57;;
50932;SDS011;36921;49.006;9.292;2024-01-30T03:56:13;14.23;;;7.30;;
50932;SDS011;36921;49.006;9.292;2024-01-30T03:58:39;13.40;;;6.45;;
50932;SDS011;36921;49.006;9.292;2024-01-30T04:01:04;16.02;;;6.47;;
50932;SDS011;36921;49.006;9.292;2024-01-30T04:03:29;13.48;;;7.25;;
50932;SDS011;36921;49.006;9.292;2024-01-30T04:05:55;13.68;;;6.40;;
50932;SDS011;36921;49.006;9.292;2024-01-30T04:08:20;12.85;;;6.50;;
50932;SDS011;36921;49.006;9.292;2024-01-30T04:10:46;13.60;;;6.88;;
50932;SDS011;36921;49.006;9.292;2024-01-30T04:13:12;13.77;;;6.88;;
50932;SDS011;36921;49.006;9.292;2024-01-30T04:15:38;14.25;;;6.47;;
50932;SDS011;36921;49.006;9.292;2024-01-30T04:18:04;16.48;;;6.88;;
50932;SDS011;36921;49.006;9.292;2024-01-30T04:20:30;14.60;;;7.72;;
50932;SDS011;36921;49.006;9.292;2024-01-30T04:22:58;14.35;;;8.60;;
50932;SDS011;36921;49.006;9.292;2024-01-30T04:25:24;15.32;;;7.53;;
50932;SDS011;36921;49.006;9.292;2024-01-30T04:27:50;19.20;;;7.63;;
50932;SDS011;36921;49.006;9.292;2024-01-30T04:30:18;13.63;;;7.10;;
50932;SDS011;36921;49.006;9.292;2024-01-30T04:32:45;14.27;;;7.60;;
50932;SDS011;36921;49.006;9.292;2024-01-30T04:35:10;18.40;;;7.90;;
50932;SDS011;36921;49.006;9.292;2024-01-30T04:37:41;16.38;;;7.93;;
50932;SDS011;36921;49.006;9.292;2024-01-30T04:40:06;14.55;;;7.95;;
50932;SDS011;36921;49.006;9.292;2024-01-30T04:42:32;15.52;;;7.72;;
50932;SDS011;36921;49.006;9.292;2024-01-30T04:45:00;17.20;;;7.82;;
50932;SDS011;36921;49.006;9.292;2024-01-30T04:47:28;15.88;;;7.60;;
50932;SDS011;36921;49.006;9.292;2024-01-30T04:49:55;14.27;;;7.43;;
50932;SDS011;36921;49.006;9.292;2024-01-30T04:52:21;16.95;;;7.47;;
50932;SDS011;36921;49.006;9.292;2024-01-30T04:54:46;14.10;;;7.40;;
50932;SDS011;36921;49.006;9.292;2024-01-30T04:57:11;13.25;;;6.60;;
50932;SDS011;36921;49.006;9.292;2024-01-30T04:59:37;14.73;;;6.85;;
50932;SDS011;36921;49.006;9.292;2024-01-30T05:02:02;13.50;;;6.88;;
50932;SDS011;36921;49.006;9.292;2024-01-30T05:04:29;15.02;;;7.25;;
50932;SDS011;36921;49.006;9.292;2024-01-30T05:06:54;14.82;;;7.50;;
50932;SDS011;36921;49.006;9.292;2024-01-30T05:09:20;15.65;;;8.15;;
50932;SDS011;36921;49.006;9.292;2024-01-30T05:11:45;13.15;;;7.00;;
50932;SDS011;36921;49.006;9.292;2024-01-30T05:14:10;16.15;;;7.63;;
50932;SDS011;36921;49.006;9.292;2024-01-30T05:16:37;15.00;;;7.53;;
50932;SDS011;36921;49.006;9.292;2024-01-30T05:19:03;14.77;;;7.50;;
50932;SDS011;36921;49.006;9.292;2024-01-30T05:21:28;17.73;;;8.02;;
50932;SDS011;36921;49.006;9.292;2024-01-30T05:23:53;15.50;;;7.30;;
50932;SDS011;36921;49.006;9.292;2024-01-30T05:26:22;14.48;;;8.15;;
50932;SDS011;36921;49.006;9.292;2024-01-30T05:28:48;12.75;;;6.75;;
50932;SDS011;36921;49.006;9.292;2024-01-30T05:31:13;14.48;;;7.47;;
50932;SDS011;36921;49.006;9.292;2024-01-30T05:33:38;16.88;;;7.65;;
50932;SDS011;36921;49.006;9.292;2024-01-30T05:36:05;16.20;;;7.90;;
50932;SDS011;36921;49.006;9.292;2024-01-30T05:38:31;15.52;;;7.65;;
50932;SDS011;36921;49.006;9.292;2024-01-30T05:40:57;15.20;;;7.65;;
50932;SDS011;36921;49.006;9.292;2024-01-30T05:43:27;15.48;;;6.70;;
50932;SDS011;36921;49.006;9.292;2024-01-30T05:45:52;14.10;;;6.97;;
50932;SDS011;36921;49.006;9.292;2024-01-30T05:48:18;14.43;;;7.63;;
50932;SDS011;36921;49.006;9.292;2024-01-30T05:50:43;14.85;;;7.85;;
50932;SDS011;36921;49.006;9.292;2024-01-30T05:53:10;14.70;;;7.97;;
50932;SDS011;36921;49.006;9.292;2024-01-30T05:55:35;15.98;;;7.95;;
50932;SDS011;36921;49.006;9.292;2024-01-30T05:58:01;22.45;;;9.77;;
50932;SDS011;36921;49.006;9.292;2024-01-30T06:00:26;20.70;;;9.32;;
50932;SDS011;36921;49.006;9.292;2024-01-30T06:02:52;19.15;;;9.85;;
50932;SDS011;36921;49.006;9.292;2024-01-30T06:05:17;18.45;;;9.07;;
50932;SDS011;36921;49.006;9.292;2024-01-30T06:07:42;18.45;;;9.13;;
50932;SDS011;36921;49.006;9.292;2024-01-30T06:10:08;17.65;;;9.50;;
50932;SDS011;36921;49.006;9.292;2024-01-30T06:12:34;19.02;;;8.90;;
50932;SDS011;36921;49.006;9.292;2024-01-30T06:15:00;13.68;;;8.15;;
50932;SDS011;36921;49.006;9.292;2024-01-30T06:17:25;16.00;;;8.45;;
50932;SDS011;36921;49.006;9.292;2024-01-30T06:19:51;19.63;;;8.48;;
50932;SDS011;36921;49.006;9.292;2024-01-30T06:22:16;16.65;;;7.88;;
50932;SDS011;36921;49.006;9.292;2024-01-30T06:24:42;15.50;;;7.18;;
50932;SDS011;36921;49.006;9.292;2024-01-30T06:27:10;11.02;;;6.28;;
50932;SDS011;36921;49.006;9.292;2024-01-30T06:29:35;11.30;;;6.82;;
50932;SDS011;36921;49.006;9.292;2024-01-30T06:32:01;11.85;;;6.15;;
50932;SDS011;36921;49.006;9.292;2024-01-30T06:34:26;13.35;;;6.43;;
50932;SDS011;36921;49.006;9.292;2024-01-30T06:36:52;15.20;;;6.28;;
50932;SDS011;36921;49.006;9.292;2024-01-30T06:39:17;14.85;;;7.18;;
50932;SDS011;36921;49.006;9.292;2024-01-30T06:41:43;13.32;;;7.28;;
50932;SDS011;36921;49.006;9.292;2024-01-30T06:44:08;13.48;;;6.88;;
50932;SDS011;36921;49.006;9.292;2024-01-30T06:46:34;13.77;;;6.38;;
50932;SDS011;36921;49.006;9.292;2024-01-30T06:49:00;11.85;;;6.10;;
50932;SDS011;36921;49.006;9.292;2024-01-30T06:51:26;14.43;;;6.63;;
50932;SDS011;36921;49.006;9.292;2024-01-30T06:53:51;13.48;;;6.93;;
50932;SDS011;36921;49.006;9.292;2024-01-30T06:56:17;18.05;;;6.47;;
50932;SDS011;36921;49.006;9.292;2024-01-30T06:58:51;13.18;;;6.78;;
50932;SDS011;36921;49.006;9.292;2024-01-30T07:01:17;13.57;;;7.00;;
50932;SDS011;36921;49.006;9.292;2024-01-30T07:03:43;12.80;;;7.32;;
50932;SDS011;36921;49.006;9.292;2024-01-30T07:06:08;13.57;;;7.05;;
50932;SDS011;36921;49.006;9.292;2024-01-30T07:08:36;16.83;;;8.48;;
50932;SDS011;36921;49.006;9.292;2024-01-30T07:11:02;17.88;;;7.75;;
50932;SDS011;36921;49.006;9.292;2024-01-30T07:13:28;14.68;;;7.15;;
50932;SDS011;36921;49.006;9.292;2024-01-30T07:15:53;11.75;;;7.10;;
50932;SDS011;36921;49.006;9.292;2024-01-30T07:18:19;12.65;;;6.95;;
50932;SDS011;36921;49.006;9.292;2024-01-30T07:20:44;13.50;;;7.57;;
50932;SDS011;36921;49.006;9.292;2024-01-30T07:23:14;14.25;;;7.18;;
50932;SDS011;36921;49.006;9.292;2024-01-30T07:25:42;17.25;;;7.45;;
50932;SDS011;36921;49.006;9.292;2024-01-30T07:28:08;16.40;;;7.28;;
50932;SDS011;36921;49.006;9.292;2024-01-30T07:30:41;11.88;;;7.18;;
50932;SDS011;36921;49.006;9.292;2024-01-30T07:33:07;15.98;;;8.05;;
50932;SDS011;36921;49.006;9.292;2024-01-30T07:35:33;12.50;;;6.82;;
50932;SDS011;36921;49.006;9.292;2024-01-30T07:37:59;20.75;;;7.00;;
50932;SDS011;36921;49.006;9.292;2024-01-30T07:40:24;15.57;;;6.82;;
50932;SDS011;36921;49.006;9.292;2024-01-30T07:42:50;13.82;;;6.72;;
50932;SDS011;36921;49.006;9.292;2024-01-30T07:45:15;14.10;;;6.63;;
50932;SDS011;36921;49.006;9.292;2024-01-30T07:47:41;15.00;;;6.47;;
50932;SDS011;36921;49.006;9.292;2024-01-30T07:50:07;12.40;;;6.88;;
50932;SDS011;36921;49.006;9.292;2024-01-30T07:52:34;14.60;;;6.78;;
50932;SDS011;36921;49.006;9.292;2024-01-30T07:54:59;13.70;;;7.53;;
50932;SDS011;36921;49.006;9.292;2024-01-30T07:57:25;15.25;;;7.47;;
50932;SDS011;36921;49.006;9.292;2024-01-30T07:59:50;18.10;;;7.13;;
50932;SDS011;36921;49.006;9.292;2024-01-30T08:02:16;21.13;;;7.30;;
50932;SDS011;36921;49.006;9.292;2024-01-30T08:04:41;23.88;;;8.15;;
50932;SDS011;36921;49.006;9.292;2024-01-30T08:07:07;12.25;;;7.18;;
50932;SDS011;36921;49.006;9.292;2024-01-30T08:09:32;19.85;;;8.30;;
50932;SDS011;36921;49.006;9.292;2024-01-30T08:11:58;25.63;;;8.43;;
50932;SDS011;36921;49.006;9.292;2024-01-30T08:14:23;14.48;;;6.03;;
50932;SDS011;36921;49.006;9.292;2024-01-30T08:16:49;26.42;;;6.95;;
50932;SDS011;36921;49.006;9.292;2024-01-30T08:19:14;15.07;;;7.13;;
50932;SDS011;36921;49.006;9.292;2024-01-30T08:21:40;13.10;;;6.00;;
50932;SDS011;36921;49.006;9.292;2024-01-30T08:24:06;12.60;;;6.55;;
50932;SDS011;36921;49.006;9.292;2024-01-30T08:26:34;14.45;;;6.72;;
50932;SDS011;36921;49.006;9.292;2024-01-30T08:29:00;11.52;;;6.45;;
50932;SDS011;36921;49.006;9.292;2024-01-30T08:31:26;13.00;;;5.88;;
50932;SDS011;36921;49.006;9.292;2024-01-30T08:33:52;15.50;;;7.28;;
50932;SDS011;36921;49.006;9.292;2024-01-30T08:36:17;17.73;;;7.38;;
50932;SDS011;36921;49.006;9.292;2024-01-30T08:38:43;11.10;;;5.82;;
50932;SDS011;36921;49.006;9.292;2024-01-30T08:41:08;13.05;;;7.32;;
50932;SDS011;36921;49.006;9.292;2024-01-30T08:43:34;9.25;;;5.82;;
50932;SDS011;36921;49.006;9.292;2024-01-30T08:46:00;11.00;;;6.55;;
50932;SDS011;36921;49.006;9.292;2024-01-30T08:48:26;13.20;;;6.53;;
50932;SDS011;36921;49.006;9.292;2024-01-30T08:50:52;11.35;;;5.90;;
50932;SDS011;36921;49.006;9.292;2024-01-30T08:53:17;10.77;;;6.55;;
50932;SDS011;36921;49.006;9.292;2024-01-30T08:55:43;14.20;;;6.07;;
50932;SDS011;36921;49.006;9.292;2024-01-30T08:58:09;11.10;;;5.70;;
50932;SDS011;36921;49.006;9.292;2024-01-30T09:00:34;12.95;;;6.38;;
50932;SDS011;36921;49.006;9.292;2024-01-30T09:03:00;12.48;;;6.35;;
50932;SDS011;36921;49.006;9.292;2024-01-30T09:05:25;10.35;;;6.10;;
50932;SDS011;36921;49.006;9.292;2024-01-30T09:07:51;10.32;;;7.10;;
50932;SDS011;36921;49.006;9.292;2024-01-30T09:10:16;9.52;;;6.30;;
50932;SDS011;36921;49.006;9.292;2024-01-30T09:12:43;9.52;;;5.57;;
50932;SDS011;36921;49.006;9.292;2024-01-30T09:15:10;11.32;;;5.90;;
50932;SDS011;36921;49.006;9.292;2024-01-30T09:17:35;9.73;;;5.60;;
50932;SDS011;36921;49.006;9.292;2024-01-30T09:20:01;14.02;;;7.45;;
50932;SDS011;36921;49.006;9.292;2024-01-30T09:22:26;17.10;;;9.65;;
50932;SDS011;36921;49.006;9.292;2024-01-30T09:24:52;26.23;;;12.38;;
50932;SDS011;36921;49.006;9.292;2024-01-30T09:27:17;22.15;;;10.32;;
50932;SDS011;36921;49.006;9.292;2024-01-30T09:29:42;19.85;;;10.40;;
50932;SDS011;36921;49.006;9.292;2024-01-30T09:32:08;14.95;;;8.82;;
50932;SDS011;36921;49.006;9.292;2024-01-30T09:34:34;17.00;;;7.95;;
50932;SDS011;36921;49.006;9.292;2024-01-30T09:37:00;14.27;;;7.93;;
50932;SDS011;36921;49.006;9.292;2024-01-30T09:39:26;15.10;;;7.50;;
50932;SDS011;36921;49.006;9.292;2024-01-30T09:44:45;13.90;;;7.10;;
50932;SDS011;36921;49.006;9.292;2024-01-30T09:47:14;13.25;;;7.78;;
50932;SDS011;36921;49.006;9.292;2024-01-30T09:49:41;18.27;;;9.63;;
50932;SDS011;36921;49.006;9.292;2024-01-30T09:52:08;19.38;;;10.65;;
50932;SDS011;36921;49.006;9.292;2024-01-30T09:54:33;23.70;;;10.43;;
50932;SDS011;36921;49.006;9.292;2024-01-30T09:57:00;17.80;;;9.02;;
50932;SDS011;36921;49.006;9.292;2024-01-30T09:59:25;20.15;;;8.77;;
50932;SDS011;36921;49.006;9.292;2024-01-30T10:01:51;18.90;;;9.35;;
50932;SDS011;36921;49.006;9.292;2024-01-30T10:04:17;29.13;;;10.93;;
50932;SDS011;36921;49.006;9.292;2024-01-30T10:06:42;25.83;;;12.55;;
50932;SDS011;36921;49.006;9.292;2024-01-30T10:09:08;29.23;;;12.52;;
50932;SDS011;36921;49.006;9.292;2024-01-30T10:11:36;21.38;;;11.52;;
50932;SDS011;36921;49.006;9.292;2024-01-30T10:14:01;20.60;;;9.32;;
50932;SDS011;36921;49.006;9.292;2024-01-30T10:16:31;20.13;;;9.20;;
50932;SDS011;36921;49.006;9.292;2024-01-30T10:18:56;14.23;;;8.35;;
50932;SDS011;36921;49.006;9.292;2024-01-30T10:21:22;14.50;;;6.78;;
50932;SDS011;36921;49.006;9.292;2024-01-30T10:23:48;13.32;;;6.55;;
50932;SDS011;36921;49.006;9.292;2024-01-30T10:26:16;13.43;;;6.40;;
50932;SDS011;36921;49.006;9.292;2024-01-30T10:28:42;10.38;;;5.90;;
50932;SDS011;36921;49.006;9.292;2024-01-30T10:31:08;9.98;;;6.35;;
50932;SDS011;36921;49.006;9.292;2024-01-30T10:33:33;14.88;;;6.75;;
50932;SDS011;36921;49.006;9.292;2024-01-30T10:36:00;13.98;;;6.50;;
50932;SDS011;36921;49.006;9.292;2024-01-30T10:38:30;13.02;;;6.82;;
50932;SDS011;36921;49.006;9.292;2024-01-30T10:40:58;14.82;;;6.72;;
50932;SDS011;36921;49.006;9.292;2024-01-30T10:43:31;12.90;;;6.78;;
50932;SDS011;36921;49.006;9.292;2024-01-30T10:46:06;13.05;;;6.82;;
50932;SDS011;36921;49.006;9.292;2024-01-30T10:48:43;13.00;;;6.53;;
50932;SDS011;36921;49.006;9.292;2024-01-30T10:51:12;12.48;;;6.85;;
50932;SDS011;36921;49.006;9.292;2024-01-30T10:53:39;17.63;;;7.80;;
50932;SDS011;36921;49.006;9.292;2024-01-30T10:56:05;11.82;;;6.68;;
50932;SDS011;36921;49.006;9.292;2024-01-30T10:58:31;11.55;;;6.93;;
50932;SDS011;36921;49.006;9.292;2024-01-30T11:00:58;13.73;;;6.85;;
50932;SDS011;36921;49.006;9.292;2024-01-30T11:03:24;11.35;;;6.65;;
50932;SDS011;36921;49.006;9.292;2024-01-30T11:05:50;12.68;;;6.00;;
50932;SDS011;36921;49.006;9.292;2024-01-30T11:08:22;12.73;;;6.15;;
50932;SDS011;36921;49.006;9.292;2024-01-30T11:10:49;13.45;;;6.00;;
50932;SDS011;36921;49.006;9.292;2024-01-30T11:13:15;11.85;;;5.88;;
50932;SDS011;36921;49.006;9.292;2024-01-30T11:15:42;18.23;;;6.03;;
50932;SDS011;36921;49.006;9.292;2024-01-30T11:18:07;11.05;;;6.15;;
50932;SDS011;36921;49.006;9.292;2024-01-30T11:20:33;10.88;;;5.95;;
50932;SDS011;36921;49.006;9.292;2024-01-30T11:23:00;12.05;;;5.75;;
50932;SDS011;36921;49.006;9.292;2024-01-30T11:25:32;10.98;;;5.95;;
50932;SDS011;36921;49.006;9.292;2024-01-30T11:27:58;13.30;;;5.72;;
50932;SDS011;36921;49.006;9.292;2024-01-30T11:30:28;18.27;;;6.05;;
50932;SDS011;36921;49.006;9.292;2024-01-30T11:33:04;10.05;;;5.72;;
50932;SDS011;36921;49.006;9.292;2024-01-30T11:35:35;10.60;;;5.45;;
50932;SDS011;36921;49.006;9.292;2024-01-30T11:38:02;10.02;;;6.03;;
50932;SDS011;36921;49.006;9.292;2024-01-30T11:40:28;12.30;;;5.47;;
50932;SDS011;36921;49.006;9.292;2024-01-30T11:42:55;12.63;;;5.28;;
50932;SDS011;36921;49.006;9.292;2024-01-30T11:45:22;14.25;;;5.70;;
50932;SDS011;36921;49.006;9.292;2024-01-30T11:47:48;13.77;;;5.53;;
50932;SDS011;36921;49.006;9.292;2024-01-30T11:50:14;11.38;;;5.53;;
50932;SDS011;36921;49.006;9.292;2024-01-30T11:52:40;15.30;;;6.18;;
50932;SDS011;36921;49.006;9.292;2024-01-30T11:55:06;10.57;;;6.57;;
50932;SDS011;36921;49.006;9.292;2024-01-30T11:57:33;13.05;;;6.50;;
50932;SDS011;36921;49.006;9.292;2024-01-30T12:00:00;14.75;;;5.70;;
50932;SDS011;36921;49.006;9.292;2024-01-30T12:02:25;10.55;;;6.13;;
50932;SDS011;36921;49.006;9.292;2024-01-30T12:04:50;11.52;;;6.57;;
50932;SDS011;36921;49.006;9.292;2024-01-30T12:07:16;12.88;;;6.30;;
50932;SDS011;36921;49.006;9.292;2024-01-30T12:09:41;12.82;;;6.70;;
50932;SDS011;36921;49.006;9.292;2024-01-30T12:12:09;12.10;;;6.18;;
50932;SDS011;36921;49.006;9.292;2024-01-30T12:14:39;8.20;;;5.78;;
50932;SDS011;36921;49.006;9.292;2024-01-30T12:17:05;11.15;;;6.30;;
50932;SDS011;36921;49.006;9.292;2024-01-30T12:19:32;12.73;;;6.22;;
50932;SDS011;36921;49.006;9.292;2024-01-30T12:21:58;9.63;;;5.65;;
50932;SDS011;36921;49.006;9.292;2024-01-30T12:24:28;13.88;;;5.88;;
50932;SDS011;36921;49.006;9.292;2024-01-30T12:26:58;10.00;;;5.10;;
50932;SDS011;36921;49.006;9.292;2024-01-30T12:29:25;14.40;;;5.13;;
50932;SDS011;36921;49.006;9.292;2024-01-30T12:31:52;9.70;;;4.68;;
50932;SDS011;36921;49.006;9.292;2024-01-30T12:34:19;10.30;;;5.45;;
50932;SDS011;36921;49.006;9.292;2024-01-30T12:36:46;15.85;;;5.75;;
50932;SDS011;36921;49.006;9.292;2024-01-30T12:39:14;10.67;;;5.23;;
50932;SDS011;36921;49.006;9.292;2024-01-30T12:41:40;9.45;;;4.95;;
50932;SDS011;36921;49.006;9.292;2024-01-30T12:44:05;8.85;;;5.57;;
50932;SDS011;36921;49.006;9.292;2024-01-30T12:46:36;10.70;;;4.82;;
50932;SDS011;36921;49.006;9.292;2024-01-30T12:49:01;11.07;;;5.03;;
50932;SDS011;36921;49.006;9.292;2024-01-30T12:51:27;14.60;;;5.60;;
50932;SDS011;36921;49.006;9.292;2024-01-30T12:53:52;12.05;;;5.47;;
50932;SDS011;36921;49.006;9.292;2024-01-30T12:56:18;9.50;;;5.10;;
50932;SDS011;36921;49.006;9.292;2024-01-30T12:58:43;11.60;;;5.05;;
50932;SDS011;36921;49.006;9.292;2024-01-30T13:01:09;9.00;;;5.15;;
50932;SDS011;36921;49.006;9.292;2024-01-30T13:03:35;12.13;;;5.00;;
50932;SDS011;36921;49.006;9.292;2024-01-30T13:06:00;11.20;;;5.18;;
50932;SDS011;36921;49.006;9.292;2024-01-30T13:08:26;12.10;;;5.53;;
50932;SDS011;36921;49.006;9.292;2024-01-30T13:10:51;11.07;;;5.43;;
50932;SDS011;36921;49.006;9.292;2024-01-30T13:13:17;10.60;;;5.20;;
50932;SDS011;36921;49.006;9.292;2024-01-30T13:15:42;13.35;;;6.38;;
50932;SDS011;36921;49.006;9.292;2024-01-30T13:18:08;16.70;;;6.97;;
50932;SDS011;36921;49.006;9.292;2024-01-30T13:20:33;19.98;;;8.27;;
50932;SDS011;36921;49.006;9.292;2024-01-30T13:22:59;17.25;;;8.18;;
50932;SDS011;36921;49.006;9.292;2024-01-30T13:25:24;30.13;;;11.93;;
50932;SDS011;36921;49.006;9.292;2024-01-30T13:27:50;14.40;;;7.13;;
50932;SDS011;36921;49.006;9.292;2024-01-30T13:30:15;22.25;;;7.53;;
50932;SDS011;36921;49.006;9.292;2024-01-30T13:32:41;10.38;;;6.65;;
50932;SDS011;36921;49.006;9.292;2024-01-30T13:35:09;16.67;;;7.32;;
50932;SDS011;36921;49.006;9.292;2024-01-30T13:37:35;12.23;;;6.57;;
50932;SDS011;36921;49.006;9.292;2024-01-30T13:40:00;13.57;;;6.07;;
50932;SDS011;36921;49.006;9.292;2024-01-30T13:42:26;17.20;;;7.43;;
50932;SDS011;36921;49.006;9.292;2024-01-30T13:44:52;10.57;;;6.25;;
50932;SDS011;36921;49.006;9.292;2024-01-30T13:47:18;15.80;;;6.43;;
50932;SDS011;36921;49.006;9.292;2024-01-30T13:49:46;15.32;;;6.32;;
50932;SDS011;36921;49.006;9.292;2024-01-30T13:52:12;15.80;;;7.30;;
50932;SDS011;36921;49.006;9.292;2024-01-30T13:54:38;15.80;;;7.15;;
50932;SDS011;36921;49.006;9.292;2024-01-30T13:57:04;14.50;;;7.20;;
50932;SDS011;36921;49.006;9.292;2024-01-30T13:59:30;11.90;;;6.53;;
50932;SDS011;36921;49.006;9.292;2024-01-30T14:01:55;10.93;;;7.07;;
50932;SDS011;36921;49.006;9.292;2024-01-30T14:04:20;10.27;;;6.15;;
50932;SDS011;36921;49.006;9.292;2024-01-30T14:06:46;12.65;;;5.40;;
50932;SDS011;36921;49.006;9.292;2024-01-30T14:09:12;12.10;;;6.18;;
50932;SDS011;36921;49.006;9.292;2024-01-30T14:11:39;10.35;;;5.50;;
50932;SDS011;36921;49.006;9.292;2024-01-30T14:14:05;11.45;;;5.13;;
50932;SDS011;36921;49.006;9.292;2024-01-30T14:16:30;15.50;;;5.22;;
50932;SDS011;36921;49.006;9.292;2024-01-30T14:18:55;10.32;;;5.00;;
50932;SDS011;36921;49.006;9.292;2024-01-30T14:21:20;13.27;;;4.68;;
50932;SDS011;36921;49.006;9.292;2024-01-30T14:23:46;6.88;;;4.55;;
50932;SDS011;36921;49.006;9.292;2024-01-30T14:26:12;10.27;;;4.78;;
50932;SDS011;36921;49.006;9.292;2024-01-30T14:28:37;7.30;;;4.07;;
50932;SDS011;36921;49.006;9.292;2024-01-30T14:31:02;9.95;;;4.05;;
50932;SDS011;36921;49.006;9.292;2024-01-30T14:33:28;8.95;;;4.43;;